Arcadia Highway — 3FQT4 — position and weather

sailwx.info

Track history (hours):
 
Tides and Currents Weather Stations Pressure Air Temp Water Temp Dewpoint Dewpoint Depression Visibility Wind Speed Wind Dir Waves Ship Positions

Arcadia Highway

Last reported at 2017-Dec-11 03:22 UTC. Time now 2017-Dec-13 07:27 UTC.
Position N 01°14' E 103°58'.

Length 179 m; draft 7.4 m.

Type: Cargo ship. MMSI: 354342000.

Date/timePositionNaut miles runAvg speedWind from/ knotsBaromVisibWave heightAir tempDewpointWater temp
2017-Dec-11 03:22N 01°14' E 103°58'514.6
2017-Dec-11 03:00N 01°12' E 103°53'5 9.6
2017-Dec-11 02:30N 01°13' E 103°48'5 9.1
2017-Dec-11 02:00N 01°16' E 103°45'1 1.5
2017-Dec-11 01:25N 01°17' E 103°45'0 0.0
2017-Dec-11 00:55N 01°17' E 103°45'0 0.0
2017-Dec-11 00:28N 01°17' E 103°45'0 0.0
2017-Dec-10 23:52N 01°17' E 103°45'0 0.0
2017-Dec-10 23:28N 01°17' E 103°45'0 0.0
2017-Dec-10 21:37N 01°17' E 103°45'0 0.0
2017-Dec-10 21:22N 01°17' E 103°45'0 0.0
2017-Dec-10 20:43N 01°17' E 103°45'0 0.0
2017-Dec-10 20:19N 01°17' E 103°45'0 0.0
2017-Dec-10 19:46N 01°17' E 103°45'0 0.0
2017-Dec-10 19:28N 01°17' E 103°45'0 0.0
2017-Dec-10 18:59N 01°17' E 103°45'0 0.6
2017-Dec-10 18:31N 01°17' E 103°45'2 4.0
2017-Dec-10 18:00N 01°15' E 103°45'5 9.6
2017-Dec-10 17:30N 01°13' E 103°41'4 8.4
2017-Dec-10 17:00N 01°13' E 103°36'3 6.0
2017-Dec-10 16:30N 01°13' E 103°33'4 7.4
2017-Dec-10 16:00N 01°12' E 103°30'5 9.6
2017-Dec-10 15:30N 01°12' E 103°25'611.1
2017-Dec-10 15:00N 01°15' E 103°21'  
Track history (hours):
 
Tides and Currents Weather Stations Pressure Air Temp Water Temp Dewpoint Dewpoint Depression Visibility Wind Speed Wind Dir Waves Ship Positions

Arcadia Highway

Last reported at 2017-Dec-11 03:22 UTC. Time now 2017-Dec-13 07:27 UTC.
Position N 01°14' E 103°58'.

Length 179 m; draft 7.4 m.

Type: Cargo ship. MMSI: 354342000.

Date/timePositionNaut miles runAvg speedWind from/ knotsBaromVisibWave heightAir tempDewpointWater temp
2017-Dec-11 03:22N 01°14' E 103°58'514.6
2017-Dec-11 03:00N 01°12' E 103°53'5 9.6
2017-Dec-11 02:30N 01°13' E 103°48'5 9.1
2017-Dec-11 02:00N 01°16' E 103°45'1 1.5
2017-Dec-11 01:25N 01°17' E 103°45'0 0.0
2017-Dec-11 00:55N 01°17' E 103°45'0 0.0
2017-Dec-11 00:28N 01°17' E 103°45'0 0.0
2017-Dec-10 23:52N 01°17' E 103°45'0 0.0
2017-Dec-10 23:28N 01°17' E 103°45'0 0.0
2017-Dec-10 21:37N 01°17' E 103°45'0 0.0
2017-Dec-10 21:22N 01°17' E 103°45'0 0.0
2017-Dec-10 20:43N 01°17' E 103°45'0 0.0
2017-Dec-10 20:19N 01°17' E 103°45'0 0.0
2017-Dec-10 19:46N 01°17' E 103°45'0 0.0
2017-Dec-10 19:28N 01°17' E 103°45'0 0.0
2017-Dec-10 18:59N 01°17' E 103°45'0 0.6
2017-Dec-10 18:31N 01°17' E 103°45'2 4.0
2017-Dec-10 18:00N 01°15' E 103°45'5 9.6
2017-Dec-10 17:30N 01°13' E 103°41'4 8.4
2017-Dec-10 17:00N 01°13' E 103°36'3 6.0
2017-Dec-10 16:30N 01°13' E 103°33'4 7.4
2017-Dec-10 16:00N 01°12' E 103°30'5 9.6
2017-Dec-10 15:30N 01°12' E 103°25'611.1
2017-Dec-10 15:00N 01°15' E 103°21'  

Dump ship's entire track history